sensor_id;sensor_type;location;lat;lon;timestamp;P1;durP1;ratioP1;P2;durP2;ratioP2
14740;SDS011;7462;53.530;9.414;2023-03-01T00:01:01;12.50;;;8.73;;
14740;SDS011;7462;53.530;9.414;2023-03-01T00:03:31;12.87;;;9.17;;
14740;SDS011;7462;53.530;9.414;2023-03-01T00:05:59;13.87;;;9.03;;
14740;SDS011;7462;53.530;9.414;2023-03-01T00:08:28;13.93;;;9.10;;
14740;SDS011;7462;53.530;9.414;2023-03-01T00:11:00;15.63;;;10.30;;
14740;SDS011;7462;53.530;9.414;2023-03-01T00:13:29;13.07;;;8.93;;
14740;SDS011;7462;53.530;9.414;2023-03-01T00:15:57;11.13;;;8.53;;
14740;SDS011;7462;53.530;9.414;2023-03-01T00:18:25;16.63;;;11.37;;
14740;SDS011;7462;53.530;9.414;2023-03-01T00:20:55;15.43;;;9.60;;
14740;SDS011;7462;53.530;9.414;2023-03-01T00:23:23;16.73;;;10.90;;
14740;SDS011;7462;53.530;9.414;2023-03-01T00:25:52;14.87;;;10.07;;
14740;SDS011;7462;53.530;9.414;2023-03-01T00:28:20;13.63;;;8.80;;
14740;SDS011;7462;53.530;9.414;2023-03-01T00:30:48;15.00;;;10.00;;
14740;SDS011;7462;53.530;9.414;2023-03-01T00:33:17;14.30;;;9.23;;
14740;SDS011;7462;53.530;9.414;2023-03-01T00:35:45;11.23;;;8.10;;
14740;SDS011;7462;53.530;9.414;2023-03-01T00:38:15;11.90;;;8.83;;
14740;SDS011;7462;53.530;9.414;2023-03-01T00:40:43;12.50;;;8.33;;
14740;SDS011;7462;53.530;9.414;2023-03-01T00:43:11;9.17;;;7.20;;
14740;SDS011;7462;53.530;9.414;2023-03-01T00:45:39;11.87;;;7.50;;
14740;SDS011;7462;53.530;9.414;2023-03-01T00:48:07;10.77;;;7.40;;
14740;SDS011;7462;53.530;9.414;2023-03-01T00:50:35;11.43;;;7.53;;
14740;SDS011;7462;53.530;9.414;2023-03-01T00:53:03;10.33;;;7.50;;
14740;SDS011;7462;53.530;9.414;2023-03-01T00:55:33;9.57;;;7.43;;
14740;SDS011;7462;53.530;9.414;2023-03-01T00:58:04;8.77;;;7.23;;
14740;SDS011;7462;53.530;9.414;2023-03-01T01:00:32;9.27;;;7.40;;
14740;SDS011;7462;53.530;9.414;2023-03-01T01:03:01;9.30;;;6.93;;
14740;SDS011;7462;53.530;9.414;2023-03-01T01:05:29;7.83;;;6.27;;
14740;SDS011;7462;53.530;9.414;2023-03-01T01:07:57;11.50;;;7.40;;
14740;SDS011;7462;53.530;9.414;2023-03-01T01:10:25;7.73;;;6.10;;
14740;SDS011;7462;53.530;9.414;2023-03-01T01:12:55;8.80;;;6.87;;
14740;SDS011;7462;53.530;9.414;2023-03-01T01:15:23;9.43;;;6.53;;
14740;SDS011;7462;53.530;9.414;2023-03-01T01:17:51;10.13;;;7.53;;
14740;SDS011;7462;53.530;9.414;2023-03-01T01:20:19;8.20;;;6.53;;
14740;SDS011;7462;53.530;9.414;2023-03-01T01:22:47;9.30;;;6.67;;
14740;SDS011;7462;53.530;9.414;2023-03-01T01:25:15;9.37;;;6.77;;
14740;SDS011;7462;53.530;9.414;2023-03-01T01:27:43;9.23;;;6.90;;
14740;SDS011;7462;53.530;9.414;2023-03-01T01:30:13;11.47;;;7.43;;
14740;SDS011;7462;53.530;9.414;2023-03-01T01:32:41;9.07;;;6.40;;
14740;SDS011;7462;53.530;9.414;2023-03-01T01:35:09;8.43;;;6.77;;
14740;SDS011;7462;53.530;9.414;2023-03-01T01:37:37;8.53;;;6.43;;
14740;SDS011;7462;53.530;9.414;2023-03-01T01:40:05;9.70;;;7.03;;
14740;SDS011;7462;53.530;9.414;2023-03-01T01:42:34;8.80;;;7.03;;
14740;SDS011;7462;53.530;9.414;2023-03-01T01:47:57;9.07;;;6.73;;
14740;SDS011;7462;53.530;9.414;2023-03-01T01:50:27;11.17;;;7.80;;
14740;SDS011;7462;53.530;9.414;2023-03-01T01:53:06;9.50;;;7.10;;
14740;SDS011;7462;53.530;9.414;2023-03-01T01:55:37;8.70;;;5.87;;
14740;SDS011;7462;53.530;9.414;2023-03-01T01:58:10;9.93;;;7.60;;
14740;SDS011;7462;53.530;9.414;2023-03-01T02:00:42;10.40;;;7.17;;
14740;SDS011;7462;53.530;9.414;2023-03-01T02:03:11;8.37;;;6.43;;
14740;SDS011;7462;53.530;9.414;2023-03-01T02:05:45;9.20;;;6.13;;
14740;SDS011;7462;53.530;9.414;2023-03-01T02:08:21;9.27;;;6.40;;
14740;SDS011;7462;53.530;9.414;2023-03-01T02:10:56;8.93;;;6.37;;
14740;SDS011;7462;53.530;9.414;2023-03-01T02:13:26;9.40;;;6.23;;
14740;SDS011;7462;53.530;9.414;2023-03-01T02:15:55;8.83;;;7.03;;
14740;SDS011;7462;53.530;9.414;2023-03-01T02:18:23;8.77;;;6.70;;
14740;SDS011;7462;53.530;9.414;2023-03-01T02:20:58;9.30;;;6.70;;
14740;SDS011;7462;53.530;9.414;2023-03-01T02:23:35;10.13;;;7.27;;
14740;SDS011;7462;53.530;9.414;2023-03-01T02:26:06;9.53;;;6.53;;
14740;SDS011;7462;53.530;9.414;2023-03-01T02:28:42;10.77;;;7.37;;
14740;SDS011;7462;53.530;9.414;2023-03-01T02:31:13;8.03;;;6.30;;
14740;SDS011;7462;53.530;9.414;2023-03-01T02:34:02;9.53;;;6.63;;
14740;SDS011;7462;53.530;9.414;2023-03-01T02:36:34;9.87;;;6.33;;
14740;SDS011;7462;53.530;9.414;2023-03-01T02:39:05;8.80;;;6.77;;
14740;SDS011;7462;53.530;9.414;2023-03-01T02:41:41;8.40;;;6.57;;
14740;SDS011;7462;53.530;9.414;2023-03-01T02:44:12;10.20;;;6.93;;
14740;SDS011;7462;53.530;9.414;2023-03-01T02:46:42;8.67;;;6.43;;
14740;SDS011;7462;53.530;9.414;2023-03-01T02:49:20;10.00;;;6.07;;
14740;SDS011;7462;53.530;9.414;2023-03-01T02:52:01;8.60;;;6.30;;
14740;SDS011;7462;53.530;9.414;2023-03-01T02:54:50;7.70;;;5.70;;
14740;SDS011;7462;53.530;9.414;2023-03-01T02:57:22;10.43;;;6.07;;
14740;SDS011;7462;53.530;9.414;2023-03-01T02:59:55;9.63;;;6.67;;
14740;SDS011;7462;53.530;9.414;2023-03-01T03:02:27;7.77;;;5.83;;
14740;SDS011;7462;53.530;9.414;2023-03-01T03:05:16;9.77;;;7.23;;
14740;SDS011;7462;53.530;9.414;2023-03-01T03:07:48;7.47;;;5.43;;
14740;SDS011;7462;53.530;9.414;2023-03-01T03:10:19;11.13;;;6.33;;
14740;SDS011;7462;53.530;9.414;2023-03-01T03:12:49;9.13;;;6.53;;
14740;SDS011;7462;53.530;9.414;2023-03-01T03:15:20;9.97;;;7.47;;
14740;SDS011;7462;53.530;9.414;2023-03-01T03:17:49;9.20;;;6.53;;
14740;SDS011;7462;53.530;9.414;2023-03-01T03:20:19;10.27;;;6.57;;
14740;SDS011;7462;53.530;9.414;2023-03-01T03:22:49;8.70;;;6.20;;
14740;SDS011;7462;53.530;9.414;2023-03-01T03:25:18;10.53;;;6.27;;
14740;SDS011;7462;53.530;9.414;2023-03-01T03:27:49;9.53;;;6.57;;
14740;SDS011;7462;53.530;9.414;2023-03-01T03:30:25;6.60;;;5.03;;
14740;SDS011;7462;53.530;9.414;2023-03-01T03:32:54;7.33;;;5.20;;
14740;SDS011;7462;53.530;9.414;2023-03-01T03:35:24;11.27;;;6.60;;
14740;SDS011;7462;53.530;9.414;2023-03-01T03:37:55;8.27;;;6.07;;
14740;SDS011;7462;53.530;9.414;2023-03-01T03:40:31;9.57;;;6.60;;
14740;SDS011;7462;53.530;9.414;2023-03-01T03:43:01;9.20;;;6.63;;
14740;SDS011;7462;53.530;9.414;2023-03-01T03:45:31;10.87;;;6.90;;
14740;SDS011;7462;53.530;9.414;2023-03-01T03:48:00;14.77;;;9.40;;
14740;SDS011;7462;53.530;9.414;2023-03-01T03:50:28;15.97;;;9.20;;
14740;SDS011;7462;53.530;9.414;2023-03-01T03:52:57;15.50;;;9.60;;
14740;SDS011;7462;53.530;9.414;2023-03-01T03:55:25;18.93;;;10.67;;
14740;SDS011;7462;53.530;9.414;2023-03-01T03:57:57;17.27;;;9.70;;
14740;SDS011;7462;53.530;9.414;2023-03-01T04:00:28;20.77;;;11.33;;
14740;SDS011;7462;53.530;9.414;2023-03-01T04:02:58;16.33;;;9.40;;
14740;SDS011;7462;53.530;9.414;2023-03-01T04:05:27;18.37;;;10.27;;
14740;SDS011;7462;53.530;9.414;2023-03-01T04:07:55;11.77;;;7.43;;
14740;SDS011;7462;53.530;9.414;2023-03-01T04:10:34;14.47;;;8.57;;
14740;SDS011;7462;53.530;9.414;2023-03-01T04:13:04;16.57;;;10.17;;
14740;SDS011;7462;53.530;9.414;2023-03-01T04:15:33;16.17;;;8.97;;
14740;SDS011;7462;53.530;9.414;2023-03-01T04:18:03;17.63;;;10.20;;
14740;SDS011;7462;53.530;9.414;2023-03-01T04:20:33;12.93;;;8.33;;
14740;SDS011;7462;53.530;9.414;2023-03-01T04:23:03;13.37;;;7.93;;
14740;SDS011;7462;53.530;9.414;2023-03-01T04:25:40;8.87;;;5.63;;
14740;SDS011;7462;53.530;9.414;2023-03-01T04:28:09;9.53;;;6.13;;
14740;SDS011;7462;53.530;9.414;2023-03-01T04:30:38;10.13;;;6.70;;
14740;SDS011;7462;53.530;9.414;2023-03-01T04:33:09;12.73;;;7.17;;
14740;SDS011;7462;53.530;9.414;2023-03-01T04:35:38;8.23;;;6.30;;
14740;SDS011;7462;53.530;9.414;2023-03-01T04:38:07;13.07;;;7.80;;
14740;SDS011;7462;53.530;9.414;2023-03-01T04:40:35;11.00;;;6.93;;
14740;SDS011;7462;53.530;9.414;2023-03-01T04:43:04;9.50;;;6.70;;
14740;SDS011;7462;53.530;9.414;2023-03-01T04:45:32;9.20;;;5.77;;
14740;SDS011;7462;53.530;9.414;2023-03-01T04:48:02;7.57;;;6.40;;
14740;SDS011;7462;53.530;9.414;2023-03-01T04:50:32;10.50;;;6.87;;
14740;SDS011;7462;53.530;9.414;2023-03-01T04:53:00;8.03;;;6.17;;
14740;SDS011;7462;53.530;9.414;2023-03-01T04:55:28;7.67;;;5.07;;
14740;SDS011;7462;53.530;9.414;2023-03-01T04:57:57;7.90;;;5.10;;
14740;SDS011;7462;53.530;9.414;2023-03-01T05:00:25;6.30;;;5.20;;
14740;SDS011;7462;53.530;9.414;2023-03-01T05:02:54;7.10;;;5.83;;
14740;SDS011;7462;53.530;9.414;2023-03-01T05:05:25;7.90;;;6.00;;
14740;SDS011;7462;53.530;9.414;2023-03-01T05:07:56;7.93;;;5.63;;
14740;SDS011;7462;53.530;9.414;2023-03-01T05:10:26;8.97;;;6.23;;
14740;SDS011;7462;53.530;9.414;2023-03-01T05:12:56;7.20;;;5.23;;
14740;SDS011;7462;53.530;9.414;2023-03-01T05:15:25;7.73;;;5.00;;
14740;SDS011;7462;53.530;9.414;2023-03-01T05:17:56;6.50;;;4.83;;
14740;SDS011;7462;53.530;9.414;2023-03-01T05:20:26;7.07;;;5.93;;
14740;SDS011;7462;53.530;9.414;2023-03-01T05:22:57;5.93;;;5.13;;
14740;SDS011;7462;53.530;9.414;2023-03-01T05:25:26;6.90;;;5.67;;
14740;SDS011;7462;53.530;9.414;2023-03-01T05:28:09;7.93;;;5.73;;
14740;SDS011;7462;53.530;9.414;2023-03-01T05:30:39;8.77;;;5.77;;
14740;SDS011;7462;53.530;9.414;2023-03-01T05:33:07;6.10;;;5.20;;
14740;SDS011;7462;53.530;9.414;2023-03-01T05:35:40;9.60;;;5.73;;
14740;SDS011;7462;53.530;9.414;2023-03-01T05:38:10;7.10;;;5.37;;
14740;SDS011;7462;53.530;9.414;2023-03-01T05:40:40;6.43;;;5.40;;
14740;SDS011;7462;53.530;9.414;2023-03-01T05:43:09;8.00;;;5.73;;
14740;SDS011;7462;53.530;9.414;2023-03-01T05:45:39;7.27;;;6.50;;
14740;SDS011;7462;53.530;9.414;2023-03-01T05:48:08;7.40;;;5.83;;
14740;SDS011;7462;53.530;9.414;2023-03-01T05:50:38;9.33;;;6.47;;
14740;SDS011;7462;53.530;9.414;2023-03-01T05:53:09;10.70;;;7.27;;
14740;SDS011;7462;53.530;9.414;2023-03-01T05:55:40;9.13;;;6.90;;
14740;SDS011;7462;53.530;9.414;2023-03-01T05:58:09;7.37;;;6.60;;
14740;SDS011;7462;53.530;9.414;2023-03-01T06:00:40;9.63;;;6.63;;
14740;SDS011;7462;53.530;9.414;2023-03-01T06:03:10;12.93;;;6.97;;
14740;SDS011;7462;53.530;9.414;2023-03-01T06:05:39;14.13;;;7.80;;
14740;SDS011;7462;53.530;9.414;2023-03-01T06:08:08;9.10;;;6.97;;
14740;SDS011;7462;53.530;9.414;2023-03-01T06:10:39;9.13;;;6.70;;
14740;SDS011;7462;53.530;9.414;2023-03-01T06:13:08;7.60;;;6.30;;
14740;SDS011;7462;53.530;9.414;2023-03-01T06:15:36;8.60;;;6.27;;
14740;SDS011;7462;53.530;9.414;2023-03-01T06:18:04;8.47;;;6.30;;
14740;SDS011;7462;53.530;9.414;2023-03-01T06:20:32;8.73;;;5.40;;
14740;SDS011;7462;53.530;9.414;2023-03-01T06:23:00;9.83;;;6.57;;
14740;SDS011;7462;53.530;9.414;2023-03-01T06:25:28;8.47;;;6.33;;
14740;SDS011;7462;53.530;9.414;2023-03-01T06:27:58;10.07;;;6.30;;
14740;SDS011;7462;53.530;9.414;2023-03-01T06:30:26;8.93;;;6.70;;
14740;SDS011;7462;53.530;9.414;2023-03-01T06:32:54;8.57;;;6.27;;
14740;SDS011;7462;53.530;9.414;2023-03-01T06:35:27;9.63;;;6.70;;
14740;SDS011;7462;53.530;9.414;2023-03-01T06:37:57;10.43;;;6.70;;
14740;SDS011;7462;53.530;9.414;2023-03-01T06:40:26;9.70;;;6.60;;
14740;SDS011;7462;53.530;9.414;2023-03-01T06:42:55;11.10;;;7.37;;
14740;SDS011;7462;53.530;9.414;2023-03-01T06:45:24;9.77;;;7.70;;
14740;SDS011;7462;53.530;9.414;2023-03-01T06:47:52;8.57;;;7.30;;
14740;SDS011;7462;53.530;9.414;2023-03-01T06:50:29;11.40;;;8.33;;
14740;SDS011;7462;53.530;9.414;2023-03-01T06:52:57;12.43;;;8.50;;
14740;SDS011;7462;53.530;9.414;2023-03-01T06:55:26;11.00;;;7.87;;
14740;SDS011;7462;53.530;9.414;2023-03-01T06:57:54;10.60;;;7.50;;
14740;SDS011;7462;53.530;9.414;2023-03-01T07:00:24;10.90;;;7.37;;
14740;SDS011;7462;53.530;9.414;2023-03-01T07:02:53;10.10;;;7.17;;
14740;SDS011;7462;53.530;9.414;2023-03-01T07:05:21;11.00;;;7.87;;
14740;SDS011;7462;53.530;9.414;2023-03-01T07:07:49;9.40;;;6.60;;
14740;SDS011;7462;53.530;9.414;2023-03-01T07:10:18;9.03;;;6.83;;
14740;SDS011;7462;53.530;9.414;2023-03-01T07:12:46;10.73;;;7.70;;
14740;SDS011;7462;53.530;9.414;2023-03-01T07:15:14;9.53;;;7.23;;
14740;SDS011;7462;53.530;9.414;2023-03-01T07:17:43;7.63;;;6.50;;
14740;SDS011;7462;53.530;9.414;2023-03-01T07:20:14;9.10;;;6.23;;
14740;SDS011;7462;53.530;9.414;2023-03-01T07:22:42;9.57;;;6.43;;
14740;SDS011;7462;53.530;9.414;2023-03-01T07:25:10;7.67;;;6.30;;
14740;SDS011;7462;53.530;9.414;2023-03-01T07:27:38;8.53;;;6.50;;
14740;SDS011;7462;53.530;9.414;2023-03-01T07:30:07;8.83;;;6.43;;
14740;SDS011;7462;53.530;9.414;2023-03-01T07:32:36;10.87;;;6.73;;
14740;SDS011;7462;53.530;9.414;2023-03-01T07:35:06;7.80;;;6.27;;
14740;SDS011;7462;53.530;9.414;2023-03-01T07:37:34;9.50;;;6.17;;
14740;SDS011;7462;53.530;9.414;2023-03-01T07:40:03;7.37;;;5.53;;
14740;SDS011;7462;53.530;9.414;2023-03-01T07:42:31;8.43;;;6.10;;
14740;SDS011;7462;53.530;9.414;2023-03-01T07:44:59;7.13;;;5.57;;
14740;SDS011;7462;53.530;9.414;2023-03-01T07:47:27;9.47;;;6.37;;
14740;SDS011;7462;53.530;9.414;2023-03-01T07:49:55;8.10;;;5.97;;
14740;SDS011;7462;53.530;9.414;2023-03-01T07:52:25;8.03;;;5.90;;
14740;SDS011;7462;53.530;9.414;2023-03-01T07:54:53;7.57;;;5.50;;
14740;SDS011;7462;53.530;9.414;2023-03-01T07:57:21;7.77;;;6.30;;
14740;SDS011;7462;53.530;9.414;2023-03-01T07:59:50;8.33;;;6.87;;
14740;SDS011;7462;53.530;9.414;2023-03-01T08:02:18;7.90;;;6.37;;
14740;SDS011;7462;53.530;9.414;2023-03-01T08:04:46;9.80;;;7.10;;
14740;SDS011;7462;53.530;9.414;2023-03-01T08:07:14;8.80;;;7.03;;
14740;SDS011;7462;53.530;9.414;2023-03-01T08:09:43;8.50;;;7.43;;
14740;SDS011;7462;53.530;9.414;2023-03-01T08:12:11;10.47;;;7.13;;
14740;SDS011;7462;53.530;9.414;2023-03-01T08:14:39;9.30;;;7.43;;
14740;SDS011;7462;53.530;9.414;2023-03-01T08:17:07;10.10;;;6.77;;
14740;SDS011;7462;53.530;9.414;2023-03-01T08:19:36;9.57;;;7.63;;
14740;SDS011;7462;53.530;9.414;2023-03-01T08:22:04;8.87;;;7.83;;
14740;SDS011;7462;53.530;9.414;2023-03-01T08:24:32;11.27;;;7.07;;
14740;SDS011;7462;53.530;9.414;2023-03-01T08:27:02;9.63;;;7.50;;
14740;SDS011;7462;53.530;9.414;2023-03-01T08:29:30;9.23;;;7.20;;
14740;SDS011;7462;53.530;9.414;2023-03-01T08:31:58;9.30;;;7.20;;
14740;SDS011;7462;53.530;9.414;2023-03-01T08:34:27;9.57;;;7.67;;
14740;SDS011;7462;53.530;9.414;2023-03-01T08:36:55;9.27;;;7.60;;
14740;SDS011;7462;53.530;9.414;2023-03-01T08:39:23;9.43;;;7.07;;
14740;SDS011;7462;53.530;9.414;2023-03-01T08:41:51;9.90;;;7.30;;
14740;SDS011;7462;53.530;9.414;2023-03-01T08:44:21;9.70;;;7.50;;
14740;SDS011;7462;53.530;9.414;2023-03-01T08:46:49;10.30;;;7.27;;
14740;SDS011;7462;53.530;9.414;2023-03-01T08:49:19;10.70;;;7.10;;
14740;SDS011;7462;53.530;9.414;2023-03-01T08:51:47;8.23;;;6.83;;
14740;SDS011;7462;53.530;9.414;2023-03-01T08:54:16;9.07;;;6.60;;
14740;SDS011;7462;53.530;9.414;2023-03-01T08:56:46;10.57;;;7.40;;
14740;SDS011;7462;53.530;9.414;2023-03-01T08:59:15;11.93;;;7.57;;
14740;SDS011;7462;53.530;9.414;2023-03-01T09:01:45;10.77;;;7.23;;
14740;SDS011;7462;53.530;9.414;2023-03-01T09:04:14;12.20;;;7.93;;
14740;SDS011;7462;53.530;9.414;2023-03-01T09:06:42;13.67;;;7.93;;
14740;SDS011;7462;53.530;9.414;2023-03-01T09:09:12;13.37;;;8.10;;
14740;SDS011;7462;53.530;9.414;2023-03-01T09:11:42;12.87;;;8.37;;
14740;SDS011;7462;53.530;9.414;2023-03-01T09:14:12;14.10;;;8.50;;
14740;SDS011;7462;53.530;9.414;2023-03-01T09:16:40;15.23;;;8.80;;
14740;SDS011;7462;53.530;9.414;2023-03-01T09:19:10;14.07;;;8.30;;
14740;SDS011;7462;53.530;9.414;2023-03-01T09:21:38;11.43;;;7.70;;
14740;SDS011;7462;53.530;9.414;2023-03-01T09:24:08;13.33;;;8.00;;
14740;SDS011;7462;53.530;9.414;2023-03-01T09:26:40;13.93;;;8.13;;
14740;SDS011;7462;53.530;9.414;2023-03-01T09:29:09;13.00;;;8.63;;
14740;SDS011;7462;53.530;9.414;2023-03-01T09:31:40;13.70;;;8.17;;
14740;SDS011;7462;53.530;9.414;2023-03-01T09:34:11;10.87;;;7.10;;
14740;SDS011;7462;53.530;9.414;2023-03-01T09:36:41;11.17;;;6.97;;
14740;SDS011;7462;53.530;9.414;2023-03-01T09:39:09;10.97;;;7.23;;
14740;SDS011;7462;53.530;9.414;2023-03-01T09:41:48;11.70;;;7.27;;
14740;SDS011;7462;53.530;9.414;2023-03-01T09:44:24;10.47;;;7.00;;
14740;SDS011;7462;53.530;9.414;2023-03-01T09:46:58;10.53;;;6.97;;
14740;SDS011;7462;53.530;9.414;2023-03-01T09:49:29;11.33;;;7.23;;
14740;SDS011;7462;53.530;9.414;2023-03-01T09:52:00;12.50;;;8.10;;
14740;SDS011;7462;53.530;9.414;2023-03-01T09:54:36;10.77;;;7.07;;
14740;SDS011;7462;53.530;9.414;2023-03-01T09:57:06;10.23;;;7.50;;
14740;SDS011;7462;53.530;9.414;2023-03-01T09:59:49;11.93;;;8.00;;
14740;SDS011;7462;53.530;9.414;2023-03-01T10:02:26;11.90;;;7.90;;
14740;SDS011;7462;53.530;9.414;2023-03-01T10:05:03;10.70;;;7.17;;
14740;SDS011;7462;53.530;9.414;2023-03-01T10:07:43;11.60;;;7.53;;
14740;SDS011;7462;53.530;9.414;2023-03-01T10:10:23;12.23;;;7.47;;
14740;SDS011;7462;53.530;9.414;2023-03-01T10:12:59;11.47;;;7.90;;
14740;SDS011;7462;53.530;9.414;2023-03-01T10:15:32;12.60;;;8.23;;
14740;SDS011;7462;53.530;9.414;2023-03-01T10:18:06;13.27;;;8.20;;
14740;SDS011;7462;53.530;9.414;2023-03-01T10:20:43;12.80;;;8.67;;
14740;SDS011;7462;53.530;9.414;2023-03-01T10:23:15;12.43;;;8.23;;
14740;SDS011;7462;53.530;9.414;2023-03-01T10:25:46;14.30;;;8.03;;
14740;SDS011;7462;53.530;9.414;2023-03-01T10:28:25;14.30;;;9.17;;
14740;SDS011;7462;53.530;9.414;2023-03-01T10:30:58;13.13;;;9.03;;
14740;SDS011;7462;53.530;9.414;2023-03-01T10:33:27;13.23;;;8.60;;
14740;SDS011;7462;53.530;9.414;2023-03-01T10:36:00;14.83;;;9.57;;
14740;SDS011;7462;53.530;9.414;2023-03-01T10:38:30;15.43;;;9.37;;
14740;SDS011;7462;53.530;9.414;2023-03-01T10:40:59;12.63;;;8.63;;
14740;SDS011;7462;53.530;9.414;2023-03-01T10:43:40;13.27;;;8.57;;
14740;SDS011;7462;53.530;9.414;2023-03-01T10:46:22;12.13;;;8.73;;
14740;SDS011;7462;53.530;9.414;2023-03-01T10:49:04;15.60;;;8.83;;
14740;SDS011;7462;53.530;9.414;2023-03-01T10:51:36;15.10;;;9.47;;
14740;SDS011;7462;53.530;9.414;2023-03-01T10:54:14;15.33;;;8.97;;
14740;SDS011;7462;53.530;9.414;2023-03-01T10:56:48;15.10;;;9.10;;
14740;SDS011;7462;53.530;9.414;2023-03-01T10:59:23;18.10;;;9.77;;
14740;SDS011;7462;53.530;9.414;2023-03-01T11:02:01;16.40;;;9.80;;
14740;SDS011;7462;53.530;9.414;2023-03-01T11:04:57;13.83;;;8.53;;
14740;SDS011;7462;53.530;9.414;2023-03-01T11:07:29;14.63;;;8.67;;
14740;SDS011;7462;53.530;9.414;2023-03-01T11:09:57;14.77;;;8.97;;
14740;SDS011;7462;53.530;9.414;2023-03-01T11:12:25;14.60;;;9.77;;
14740;SDS011;7462;53.530;9.414;2023-03-01T11:14:56;14.50;;;8.70;;
14740;SDS011;7462;53.530;9.414;2023-03-01T11:17:27;15.77;;;9.03;;
14740;SDS011;7462;53.530;9.414;2023-03-01T11:20:06;13.07;;;8.43;;
14740;SDS011;7462;53.530;9.414;2023-03-01T11:22:48;14.43;;;9.43;;
14740;SDS011;7462;53.530;9.414;2023-03-01T11:25:21;15.60;;;9.40;;
14740;SDS011;7462;53.530;9.414;2023-03-01T11:27:52;16.13;;;9.03;;
14740;SDS011;7462;53.530;9.414;2023-03-01T11:30:23;16.00;;;9.30;;
14740;SDS011;7462;53.530;9.414;2023-03-01T11:32:58;15.17;;;9.53;;
14740;SDS011;7462;53.530;9.414;2023-03-01T11:35:33;16.10;;;10.00;;
14740;SDS011;7462;53.530;9.414;2023-03-01T11:38:09;17.10;;;10.57;;
14740;SDS011;7462;53.530;9.414;2023-03-01T11:40:44;18.50;;;11.23;;
14740;SDS011;7462;53.530;9.414;2023-03-01T11:43:23;21.10;;;12.67;;
14740;SDS011;7462;53.530;9.414;2023-03-01T11:49:14;21.80;;;14.23;;
14740;SDS011;7462;53.530;9.414;2023-03-01T11:51:54;25.30;;;14.97;;
14740;SDS011;7462;53.530;9.414;2023-03-01T11:54:33;22.43;;;13.83;;
14740;SDS011;7462;53.530;9.414;2023-03-01T11:57:14;23.57;;;13.93;;
14740;SDS011;7462;53.530;9.414;2023-03-01T11:59:56;26.00;;;14.53;;
14740;SDS011;7462;53.530;9.414;2023-03-01T12:06:00;23.97;;;12.87;;
14740;SDS011;7462;53.530;9.414;2023-03-01T12:08:40;20.57;;;12.33;;
14740;SDS011;7462;53.530;9.414;2023-03-01T12:11:18;23.93;;;13.30;;
14740;SDS011;7462;53.530;9.414;2023-03-01T12:14:02;22.57;;;12.83;;
14740;SDS011;7462;53.530;9.414;2023-03-01T12:20:09;26.27;;;14.07;;
14740;SDS011;7462;53.530;9.414;2023-03-01T12:22:47;25.93;;;13.37;;
14740;SDS011;7462;53.530;9.414;2023-03-01T12:25:44;25.93;;;14.03;;
14740;SDS011;7462;53.530;9.414;2023-03-01T12:28:19;22.40;;;13.73;;
14740;SDS011;7462;53.530;9.414;2023-03-01T12:31:05;22.80;;;13.17;;
14740;SDS011;7462;53.530;9.414;2023-03-01T12:33:45;25.70;;;14.20;;
14740;SDS011;7462;53.530;9.414;2023-03-01T12:36:26;24.97;;;14.30;;
14740;SDS011;7462;53.530;9.414;2023-03-01T12:39:09;29.83;;;16.23;;
14740;SDS011;7462;53.530;9.414;2023-03-01T12:41:51;27.27;;;15.30;;
14740;SDS011;7462;53.530;9.414;2023-03-01T12:47:33;28.07;;;14.93;;
14740;SDS011;7462;53.530;9.414;2023-03-01T12:50:15;30.17;;;16.47;;
14740;SDS011;7462;53.530;9.414;2023-03-01T12:52:47;27.77;;;16.53;;
14740;SDS011;7462;53.530;9.414;2023-03-01T12:55:23;26.27;;;16.67;;
14740;SDS011;7462;53.530;9.414;2023-03-01T12:57:57;29.47;;;17.17;;
14740;SDS011;7462;53.530;9.414;2023-03-01T13:00:34;26.63;;;17.20;;
14740;SDS011;7462;53.530;9.414;2023-03-01T13:03:09;29.70;;;18.07;;
14740;SDS011;7462;53.530;9.414;2023-03-01T13:05:51;26.10;;;16.97;;
14740;SDS011;7462;53.530;9.414;2023-03-01T13:08:30;29.70;;;19.07;;
14740;SDS011;7462;53.530;9.414;2023-03-01T13:11:05;27.60;;;17.83;;
14740;SDS011;7462;53.530;9.414;2023-03-01T13:13:39;28.73;;;19.13;;
14740;SDS011;7462;53.530;9.414;2023-03-01T13:16:21;29.57;;;19.83;;
14740;SDS011;7462;53.530;9.414;2023-03-01T13:19:08;30.53;;;19.70;;
14740;SDS011;7462;53.530;9.414;2023-03-01T13:21:41;30.57;;;20.27;;
14740;SDS011;7462;53.530;9.414;2023-03-01T13:24:23;27.90;;;19.10;;
14740;SDS011;7462;53.530;9.414;2023-03-01T13:27:10;32.37;;;21.20;;
14740;SDS011;7462;53.530;9.414;2023-03-01T13:29:50;32.90;;;21.07;;
14740;SDS011;7462;53.530;9.414;2023-03-01T13:32:22;31.13;;;20.83;;
14740;SDS011;7462;53.530;9.414;2023-03-01T13:41:12;33.67;;;24.17;;
14740;SDS011;7462;53.530;9.414;2023-03-01T13:43:41;35.47;;;24.73;;
14740;SDS011;7462;53.530;9.414;2023-03-01T13:46:11;36.57;;;26.13;;
14740;SDS011;7462;53.530;9.414;2023-03-01T13:48:47;32.63;;;23.97;;
14740;SDS011;7462;53.530;9.414;2023-03-01T13:51:20;31.90;;;23.43;;
14740;SDS011;7462;53.530;9.414;2023-03-01T13:53:52;31.27;;;23.37;;
14740;SDS011;7462;53.530;9.414;2023-03-01T13:56:23;33.17;;;21.77;;
14740;SDS011;7462;53.530;9.414;2023-03-01T13:58:54;30.23;;;22.33;;
14740;SDS011;7462;53.530;9.414;2023-03-01T14:01:27;28.03;;;20.23;;
14740;SDS011;7462;53.530;9.414;2023-03-01T14:03:59;32.30;;;21.73;;
14740;SDS011;7462;53.530;9.414;2023-03-01T14:06:30;27.97;;;19.70;;
14740;SDS011;7462;53.530;9.414;2023-03-01T14:09:02;28.77;;;19.90;;
14740;SDS011;7462;53.530;9.414;2023-03-01T14:14:45;29.53;;;19.07;;
14740;SDS011;7462;53.530;9.414;2023-03-01T14:17:29;26.87;;;18.50;;
14740;SDS011;7462;53.530;9.414;2023-03-01T14:20:11;25.33;;;16.77;;
14740;SDS011;7462;53.530;9.414;2023-03-01T14:22:44;27.17;;;17.67;;
14740;SDS011;7462;53.530;9.414;2023-03-01T14:25:17;27.37;;;18.23;;
14740;SDS011;7462;53.530;9.414;2023-03-01T14:27:54;27.80;;;17.37;;
14740;SDS011;7462;53.530;9.414;2023-03-01T14:30:25;25.80;;;16.73;;
14740;SDS011;7462;53.530;9.414;2023-03-01T14:32:55;26.90;;;17.37;;
14740;SDS011;7462;53.530;9.414;2023-03-01T14:35:26;29.80;;;16.97;;
14740;SDS011;7462;53.530;9.414;2023-03-01T14:37:56;24.60;;;16.00;;
14740;SDS011;7462;53.530;9.414;2023-03-01T14:40:26;23.83;;;15.33;;
14740;SDS011;7462;53.530;9.414;2023-03-01T14:42:55;22.80;;;14.43;;
14740;SDS011;7462;53.530;9.414;2023-03-01T14:45:26;25.23;;;14.17;;
14740;SDS011;7462;53.530;9.414;2023-03-01T14:47:58;26.67;;;16.07;;
14740;SDS011;7462;53.530;9.414;2023-03-01T14:50:30;24.97;;;15.57;;
14740;SDS011;7462;53.530;9.414;2023-03-01T14:53:00;28.07;;;15.87;;
14740;SDS011;7462;53.530;9.414;2023-03-01T14:55:31;26.07;;;14.73;;
14740;SDS011;7462;53.530;9.414;2023-03-01T14:58:02;26.40;;;15.17;;
14740;SDS011;7462;53.530;9.414;2023-03-01T15:00:32;26.27;;;15.27;;
14740;SDS011;7462;53.530;9.414;2023-03-01T15:03:04;24.30;;;15.40;;
14740;SDS011;7462;53.530;9.414;2023-03-01T15:05:41;26.43;;;15.20;;
14740;SDS011;7462;53.530;9.414;2023-03-01T15:08:13;22.47;;;15.10;;
14740;SDS011;7462;53.530;9.414;2023-03-01T15:10:55;24.83;;;14.83;;
14740;SDS011;7462;53.530;9.414;2023-03-01T15:13:25;23.97;;;13.80;;
14740;SDS011;7462;53.530;9.414;2023-03-01T15:16:04;22.23;;;13.37;;
14740;SDS011;7462;53.530;9.414;2023-03-01T15:18:35;23.03;;;15.03;;
14740;SDS011;7462;53.530;9.414;2023-03-01T15:21:09;23.47;;;14.50;;
14740;SDS011;7462;53.530;9.414;2023-03-01T15:23:47;23.47;;;13.93;;
14740;SDS011;7462;53.530;9.414;2023-03-01T15:26:23;22.93;;;13.63;;
14740;SDS011;7462;53.530;9.414;2023-03-01T15:28:53;22.03;;;13.60;;
14740;SDS011;7462;53.530;9.414;2023-03-01T15:31:25;21.87;;;14.10;;
14740;SDS011;7462;53.530;9.414;2023-03-01T15:36:50;21.63;;;13.20;;
14740;SDS011;7462;53.530;9.414;2023-03-01T15:39:25;22.07;;;14.17;;
14740;SDS011;7462;53.530;9.414;2023-03-01T15:42:04;21.20;;;14.00;;
14740;SDS011;7462;53.530;9.414;2023-03-01T15:44:35;21.83;;;14.33;;